createdAt,value
2023-01-21T00:00:10.431Z,7.90
2023-01-21T00:05:11.904Z,5.82
2023-01-21T00:10:13.374Z,8.88
2023-01-21T00:15:14.832Z,10.60
2023-01-21T00:20:16.884Z,7.50
2023-01-21T00:25:18.623Z,7.68
2023-01-21T00:30:20.299Z,5.30
2023-01-21T00:35:21.737Z,5.53
2023-01-21T00:40:23.219Z,4.45
2023-01-21T00:45:24.698Z,5.25
2023-01-21T00:50:26.098Z,4.18
2023-01-21T00:55:27.491Z,4.82
2023-01-21T01:00:28.986Z,4.93
2023-01-21T01:05:30.471Z,5.15
2023-01-21T01:10:31.876Z,6.20
2023-01-21T01:15:33.307Z,5.47
2023-01-21T01:20:34.726Z,8.30
2023-01-21T01:25:37.963Z,7.50
2023-01-21T01:30:39.462Z,5.35
2023-01-21T01:35:42.015Z,4.78
2023-01-21T01:40:43.663Z,10.32
2023-01-21T01:45:45.269Z,5.03
2023-01-21T01:50:48.076Z,5.18
2023-01-21T01:55:49.919Z,7.07
2023-01-21T02:00:51.474Z,7.75
2023-01-21T02:05:54.052Z,6.25
2023-01-21T02:10:56.525Z,6.03
2023-01-21T02:16:21.614Z,8.85
2023-01-21T02:21:49.959Z,6.18
2023-01-21T02:27:09.880Z,9.50
2023-01-21T02:32:32.957Z,6.68
2023-01-21T02:38:06.894Z,6.65
2023-01-21T02:43:43.386Z,7.43
2023-01-21T02:48:56.583Z,8.30
2023-01-21T02:53:58.020Z,9.27
2023-01-21T02:59:04.628Z,9.82
2023-01-21T03:04:32.711Z,10.90
2023-01-21T03:09:35.363Z,10.00
2023-01-21T03:15:02.277Z,12.27
2023-01-21T03:20:25.661Z,14.10
2023-01-21T03:25:31.515Z,9.38
2023-01-21T03:30:35.572Z,11.98
2023-01-21T03:35:42.992Z,13.18
2023-01-21T03:40:56.515Z,10.75
2023-01-21T03:46:01.268Z,9.48
2023-01-21T03:51:10.047Z,8.60
2023-01-21T03:56:11.557Z,11.10
2023-01-21T04:01:13.098Z,8.90
2023-01-21T04:06:17.187Z,14.52
2023-01-21T04:11:18.888Z,7.75
2023-01-21T04:16:20.412Z,8.70
2023-01-21T04:21:21.968Z,12.60
2023-01-21T04:26:23.533Z,10.57
2023-01-21T04:31:25.143Z,10.05
2023-01-21T04:36:26.652Z,10.35
2023-01-21T04:41:28.212Z,16.98
2023-01-21T04:46:29.711Z,12.00
2023-01-21T04:51:31.248Z,11.48
2023-01-21T04:56:32.664Z,10.57
2023-01-21T05:01:34.361Z,9.82
2023-01-21T05:06:35.809Z,12.65
2023-01-21T05:11:37.497Z,11.63
2023-01-21T05:16:39.040Z,14.43
2023-01-21T05:21:41.722Z,10.32
2023-01-21T05:26:44.894Z,10.95
2023-01-21T05:31:46.532Z,14.13
2023-01-21T05:36:48.062Z,14.35
2023-01-21T05:41:50.153Z,15.75
2023-01-21T05:46:53.002Z,13.80
2023-01-21T05:51:54.957Z,13.52
2023-01-21T05:56:56.628Z,12.20
2023-01-21T06:02:01.048Z,14.65
2023-01-21T06:07:02.515Z,15.80
2023-01-21T06:12:04.144Z,17.23
2023-01-21T06:17:05.940Z,17.38
2023-01-21T06:22:07.423Z,17.40
2023-01-21T06:27:08.840Z,20.83
2023-01-21T06:32:10.487Z,26.27
2023-01-21T06:37:12.041Z,30.05
2023-01-21T06:42:13.601Z,31.23
2023-01-21T06:47:15.687Z,35.47
2023-01-21T06:52:17.603Z,37.35
2023-01-21T06:57:22.360Z,39.42
2023-01-21T07:02:23.812Z,44.72
2023-01-21T07:07:25.411Z,33.38
2023-01-21T07:12:27.036Z,35.45
2023-01-21T07:17:28.544Z,39.35
2023-01-21T07:22:30.003Z,39.35
2023-01-21T07:27:31.833Z,35.50
2023-01-21T07:32:33.397Z,38.08
2023-01-21T07:37:34.889Z,38.22
2023-01-21T07:42:36.435Z,33.25
2023-01-21T07:47:37.922Z,31.85
2023-01-21T07:52:40.044Z,36.35
2023-01-21T07:57:41.496Z,31.40
2023-01-21T08:02:43.016Z,31.40
2023-01-21T08:07:44.610Z,37.13
2023-01-21T08:12:46.155Z,29.30
2023-01-21T08:17:48.992Z,28.48
2023-01-21T08:22:50.963Z,22.55
2023-01-21T08:27:54.207Z,24.48
2023-01-21T08:32:55.966Z,25.27
2023-01-21T08:37:57.579Z,28.63
2023-01-21T08:43:00.153Z,30.00
2023-01-21T08:48:04.038Z,26.70
2023-01-21T08:53:05.559Z,23.98
2023-01-21T08:58:06.994Z,28.00
2023-01-21T09:03:08.824Z,28.42
2023-01-21T09:08:10.403Z,27.63
2023-01-21T09:13:12.853Z,26.08
2023-01-21T09:18:14.736Z,26.02
2023-01-21T09:23:25.621Z,29.25
2023-01-21T09:28:32.189Z,28.15
2023-01-21T09:33:37.873Z,27.25
2023-01-21T09:38:42.595Z,29.83
2023-01-21T09:43:49.052Z,24.58
2023-01-21T09:48:51.740Z,46.45
2023-01-21T09:53:57.986Z,28.88
2023-01-21T09:59:22.469Z,26.63
2023-01-21T10:04:46.172Z,25.77
2023-01-21T10:10:14.710Z,25.98
2023-01-21T10:15:41.396Z,22.67
2023-01-21T10:20:58.950Z,22.40
2023-01-21T10:26:07.131Z,22.52
2023-01-21T10:31:28.668Z,19.20
2023-01-21T10:36:49.484Z,23.67
2023-01-21T10:42:17.530Z,24.60
2023-01-21T10:47:44.927Z,20.33
2023-01-21T10:52:55.295Z,23.88
2023-01-21T11:03:46.070Z,27.27
2023-01-21T11:14:02.092Z,27.65
2023-01-21T11:19:06.846Z,33.10
2023-01-21T11:24:23.546Z,29.65
2023-01-21T11:29:26.209Z,30.52
2023-01-21T11:34:28.524Z,26.27
2023-01-21T11:39:35.468Z,25.08
2023-01-21T11:44:54.311Z,26.80
2023-01-21T11:50:03.346Z,28.98
2023-01-21T11:55:17.674Z,24.63
2023-01-21T12:00:22.796Z,28.35
2023-01-21T12:05:37.328Z,32.55
2023-01-21T12:10:44.622Z,35.25
2023-01-21T12:15:52.436Z,32.97
2023-01-21T12:20:57.216Z,26.73
2023-01-21T12:26:05.329Z,31.95
2023-01-21T12:31:23.853Z,29.25
2023-01-21T12:36:33.509Z,31.75
2023-01-21T12:41:40.437Z,36.97
2023-01-21T12:46:47.629Z,32.65
2023-01-21T12:52:14.819Z,43.13
2023-01-21T12:57:27.825Z,35.20
2023-01-21T13:02:53.109Z,29.95
2023-01-21T13:08:03.542Z,32.85
2023-01-21T13:13:14.174Z,33.30
2023-01-21T13:18:33.980Z,33.00
2023-01-21T13:23:48.297Z,36.67
2023-01-21T13:29:16.421Z,38.03
2023-01-21T13:34:39.995Z,36.53
2023-01-21T13:39:55.096Z,32.75
2023-01-21T13:45:15.937Z,35.70
2023-01-21T13:50:59.649Z,29.48
2023-01-21T13:56:13.930Z,26.52
2023-01-21T14:01:23.561Z,33.58
2023-01-21T14:06:40.628Z,29.53
2023-01-21T14:11:50.005Z,38.53
2023-01-21T14:16:52.874Z,35.58
2023-01-21T14:22:16.692Z,33.30
2023-01-21T14:27:27.785Z,33.80
2023-01-21T14:32:38.104Z,28.42
2023-01-21T14:42:49.275Z,28.73
2023-01-21T14:47:55.843Z,30.38
2023-01-21T14:52:58.000Z,28.45
2023-01-21T14:58:01.856Z,29.10
2023-01-21T15:03:03.437Z,29.85
2023-01-21T15:08:23.893Z,29.38
2023-01-21T15:13:32.929Z,25.10
2023-01-21T15:18:38.710Z,27.85
2023-01-21T15:23:41.542Z,25.63
2023-01-21T15:28:44.883Z,24.90
2023-01-21T15:33:58.946Z,29.52
2023-01-21T15:39:29.034Z,24.50
2023-01-21T15:44:47.501Z,28.17
2023-01-21T15:50:00.164Z,22.90
2023-01-21T15:55:32.611Z,24.65
2023-01-21T16:00:43.112Z,26.80
2023-01-21T16:05:50.568Z,21.40
2023-01-21T16:11:01.598Z,31.00
2023-01-21T16:16:12.729Z,26.60
2023-01-21T16:21:16.079Z,25.77
2023-01-21T16:26:26.220Z,29.95
2023-01-21T16:31:27.869Z,27.95
2023-01-21T16:36:38.236Z,25.52
2023-01-21T16:46:41.775Z,30.02
2023-01-21T16:52:18.929Z,37.58
2023-01-21T16:57:31.495Z,23.27
2023-01-21T17:02:34.118Z,28.17
2023-01-21T17:07:43.623Z,23.65
2023-01-21T17:12:59.229Z,31.20
2023-01-21T17:18:01.242Z,18.52
2023-01-21T17:23:08.059Z,28.90
2023-01-21T17:28:29.369Z,21.55
2023-01-21T17:33:30.940Z,25.67
2023-01-21T17:38:38.926Z,28.33
2023-01-21T17:43:47.823Z,21.08
2023-01-21T17:48:53.818Z,37.00
2023-01-21T17:54:02.093Z,24.17
2023-01-21T17:59:21.620Z,29.63
2023-01-21T18:04:23.192Z,44.73
2023-01-21T18:09:25.659Z,26.67
2023-01-21T18:14:27.458Z,22.02
2023-01-21T18:19:31.204Z,26.05
2023-01-21T18:24:33.009Z,31.65
2023-01-21T18:29:34.561Z,23.25
2023-01-21T18:34:36.300Z,21.65
2023-01-21T18:39:37.978Z,20.50
2023-01-21T18:44:39.775Z,26.33
2023-01-21T18:49:41.475Z,25.80
2023-01-21T18:54:43.108Z,28.92
2023-01-21T18:59:44.694Z,26.55
2023-01-21T19:04:47.372Z,25.77
2023-01-21T19:09:51.214Z,21.55
2023-01-21T19:14:53.265Z,24.85
2023-01-21T19:19:55.470Z,19.83
2023-01-21T19:24:56.955Z,21.27
2023-01-21T19:30:01.431Z,23.65
2023-01-21T19:35:02.932Z,19.40
2023-01-21T19:40:13.443Z,24.55
2023-01-21T19:45:20.110Z,24.23
2023-01-21T19:50:24.503Z,17.10
2023-01-21T19:55:26.134Z,22.10
2023-01-21T20:00:33.107Z,25.27
2023-01-21T20:05:34.801Z,22.38
2023-01-21T20:10:36.584Z,26.40
2023-01-21T20:15:38.191Z,22.17
2023-01-21T20:20:39.733Z,22.45
2023-01-21T20:25:43.616Z,21.60
2023-01-21T20:30:45.760Z,23.60
2023-01-21T20:35:49.300Z,23.73
2023-01-21T20:40:50.834Z,25.88
2023-01-21T20:45:53.410Z,26.52
2023-01-21T20:50:55.201Z,23.45
2023-01-21T20:56:00.379Z,19.60
2023-01-21T21:01:01.863Z,23.20
2023-01-21T21:06:10.868Z,27.20
2023-01-21T21:11:14.754Z,28.30
2023-01-21T21:16:26.247Z,27.58
2023-01-21T21:21:27.790Z,28.92
2023-01-21T21:26:29.554Z,20.90
2023-01-21T21:31:32.697Z,23.52
2023-01-21T21:36:34.260Z,28.15
2023-01-21T21:41:54.604Z,26.35
2023-01-21T21:52:17.779Z,24.67
2023-01-21T21:57:19.240Z,24.85
2023-01-21T22:02:21.061Z,33.28
2023-01-21T22:07:22.636Z,24.10
2023-01-21T22:12:24.224Z,23.33
2023-01-21T22:17:25.866Z,28.85
2023-01-21T22:22:27.534Z,28.23
2023-01-21T22:27:29.839Z,23.55
2023-01-21T22:32:31.315Z,22.48
2023-01-21T22:37:32.824Z,23.45
2023-01-21T22:42:34.435Z,21.52
2023-01-21T22:47:35.959Z,21.40
2023-01-21T22:52:37.500Z,19.00
2023-01-21T22:57:38.928Z,21.67
2023-01-21T23:02:40.324Z,26.23
2023-01-21T23:07:41.889Z,22.95
2023-01-21T23:12:43.331Z,18.20
2023-01-21T23:17:44.844Z,19.08
2023-01-21T23:22:46.309Z,22.35
2023-01-21T23:27:47.783Z,32.88
2023-01-21T23:32:49.204Z,27.02
2023-01-21T23:37:50.681Z,28.90
2023-01-21T23:42:52.077Z,26.17
2023-01-21T23:47:54.859Z,22.65
2023-01-21T23:52:56.522Z,18.25
2023-01-21T23:57:57.963Z,20.60
